sensor_id;sensor_type;location;lat;lon;timestamp;P1;durP1;ratioP1;P2;durP2;ratioP2
58972;SDS011;44750;52.040;7.472;2023-03-07T00:02:05;8.07;;;6.28;;
58972;SDS011;44750;52.040;7.472;2023-03-07T00:07:06;14.48;;;6.53;;
58972;SDS011;44750;52.040;7.472;2023-03-07T00:12:07;7.05;;;5.15;;
58972;SDS011;44750;52.040;7.472;2023-03-07T00:17:08;6.53;;;5.03;;
58972;SDS011;44750;52.040;7.472;2023-03-07T00:22:08;7.47;;;3.25;;
58972;SDS011;44750;52.040;7.472;2023-03-07T00:27:09;3.20;;;2.90;;
58972;SDS011;44750;52.040;7.472;2023-03-07T00:32:09;5.32;;;3.45;;
58972;SDS011;44750;52.040;7.472;2023-03-07T00:37:10;4.22;;;3.30;;
58972;SDS011;44750;52.040;7.472;2023-03-07T00:42:10;6.73;;;2.83;;
58972;SDS011;44750;52.040;7.472;2023-03-07T00:47:10;3.25;;;2.78;;
58972;SDS011;44750;52.040;7.472;2023-03-07T00:52:11;3.03;;;2.72;;
58972;SDS011;44750;52.040;7.472;2023-03-07T00:57:11;3.50;;;3.03;;
58972;SDS011;44750;52.040;7.472;2023-03-07T01:02:11;4.68;;;2.97;;
58972;SDS011;44750;52.040;7.472;2023-03-07T01:07:11;4.00;;;2.80;;
58972;SDS011;44750;52.040;7.472;2023-03-07T01:12:12;3.77;;;2.80;;
58972;SDS011;44750;52.040;7.472;2023-03-07T01:17:12;3.22;;;1.95;;
58972;SDS011;44750;52.040;7.472;2023-03-07T01:22:12;2.50;;;1.95;;
58972;SDS011;44750;52.040;7.472;2023-03-07T01:27:12;1.90;;;1.80;;
58972;SDS011;44750;52.040;7.472;2023-03-07T01:32:13;1.63;;;1.52;;
58972;SDS011;44750;52.040;7.472;2023-03-07T01:37:13;2.05;;;1.83;;
58972;SDS011;44750;52.040;7.472;2023-03-07T01:42:13;2.38;;;2.17;;
58972;SDS011;44750;52.040;7.472;2023-03-07T01:47:13;2.90;;;2.05;;
58972;SDS011;44750;52.040;7.472;2023-03-07T01:52:15;2.40;;;2.20;;
58972;SDS011;44750;52.040;7.472;2023-03-07T01:57:20;2.28;;;1.98;;
58972;SDS011;44750;52.040;7.472;2023-03-07T02:02:24;1.60;;;1.50;;
58972;SDS011;44750;52.040;7.472;2023-03-07T02:07:27;2.00;;;1.80;;
58972;SDS011;44750;52.040;7.472;2023-03-07T02:12:33;2.05;;;1.90;;
58972;SDS011;44750;52.040;7.472;2023-03-07T02:17:33;2.00;;;1.65;;
58972;SDS011;44750;52.040;7.472;2023-03-07T02:22:34;2.57;;;1.60;;
58972;SDS011;44750;52.040;7.472;2023-03-07T02:27:35;3.58;;;2.15;;
58972;SDS011;44750;52.040;7.472;2023-03-07T02:32:36;2.83;;;1.90;;
58972;SDS011;44750;52.040;7.472;2023-03-07T02:37:36;1.58;;;1.48;;
58972;SDS011;44750;52.040;7.472;2023-03-07T02:42:38;1.83;;;1.70;;
58972;SDS011;44750;52.040;7.472;2023-03-07T02:47:43;2.25;;;1.75;;
58972;SDS011;44750;52.040;7.472;2023-03-07T02:52:44;2.08;;;1.88;;
58972;SDS011;44750;52.040;7.472;2023-03-07T02:57:45;22.30;;;2.75;;
58972;SDS011;44750;52.040;7.472;2023-03-07T03:02:45;3.20;;;1.90;;
58972;SDS011;44750;52.040;7.472;2023-03-07T03:07:45;1.77;;;1.45;;
58972;SDS011;44750;52.040;7.472;2023-03-07T03:12:45;4.47;;;2.65;;
58972;SDS011;44750;52.040;7.472;2023-03-07T03:17:46;3.38;;;2.63;;
58972;SDS011;44750;52.040;7.472;2023-03-07T03:22:46;3.17;;;2.25;;
58972;SDS011;44750;52.040;7.472;2023-03-07T03:27:46;2.20;;;1.90;;
58972;SDS011;44750;52.040;7.472;2023-03-07T03:32:47;5.05;;;2.40;;
58972;SDS011;44750;52.040;7.472;2023-03-07T03:37:47;2.58;;;1.88;;
58972;SDS011;44750;52.040;7.472;2023-03-07T03:42:48;1.65;;;1.50;;
58972;SDS011;44750;52.040;7.472;2023-03-07T03:47:48;1.88;;;1.35;;
58972;SDS011;44750;52.040;7.472;2023-03-07T03:52:48;0.80;;;0.75;;
58972;SDS011;44750;52.040;7.472;2023-03-07T03:57:48;3.30;;;1.48;;
58972;SDS011;44750;52.040;7.472;2023-03-07T04:02:49;1.00;;;0.90;;
58972;SDS011;44750;52.040;7.472;2023-03-07T04:07:49;0.82;;;0.82;;
58972;SDS011;44750;52.040;7.472;2023-03-07T04:12:49;1.05;;;0.95;;
58972;SDS011;44750;52.040;7.472;2023-03-07T04:17:49;0.80;;;0.80;;
58972;SDS011;44750;52.040;7.472;2023-03-07T04:22:50;0.70;;;0.70;;
58972;SDS011;44750;52.040;7.472;2023-03-07T04:27:50;1.90;;;0.90;;
58972;SDS011;44750;52.040;7.472;2023-03-07T04:32:50;1.77;;;1.00;;
58972;SDS011;44750;52.040;7.472;2023-03-07T04:37:51;2.00;;;1.02;;
58972;SDS011;44750;52.040;7.472;2023-03-07T04:42:51;0.80;;;0.80;;
58972;SDS011;44750;52.040;7.472;2023-03-07T04:47:51;1.83;;;1.38;;
58972;SDS011;44750;52.040;7.472;2023-03-07T04:52:51;1.20;;;1.10;;
58972;SDS011;44750;52.040;7.472;2023-03-07T04:57:52;1.02;;;0.98;;
58972;SDS011;44750;52.040;7.472;2023-03-07T05:02:55;1.33;;;1.23;;
58972;SDS011;44750;52.040;7.472;2023-03-07T05:07:56;0.70;;;0.70;;
58972;SDS011;44750;52.040;7.472;2023-03-07T05:12:56;1.45;;;1.35;;
58972;SDS011;44750;52.040;7.472;2023-03-07T05:17:56;0.73;;;0.73;;
58972;SDS011;44750;52.040;7.472;2023-03-07T05:22:57;1.00;;;0.90;;
58972;SDS011;44750;52.040;7.472;2023-03-07T05:27:57;1.23;;;1.13;;
58972;SDS011;44750;52.040;7.472;2023-03-07T05:32:57;2.00;;;1.40;;
58972;SDS011;44750;52.040;7.472;2023-03-07T05:37:57;1.88;;;1.42;;
58972;SDS011;44750;52.040;7.472;2023-03-07T05:42:58;1.35;;;1.25;;
58972;SDS011;44750;52.040;7.472;2023-03-07T05:47:58;1.30;;;0.73;;
58972;SDS011;44750;52.040;7.472;2023-03-07T05:52:58;1.10;;;1.10;;
58972;SDS011;44750;52.040;7.472;2023-03-07T05:57:59;0.82;;;0.60;;
58972;SDS011;44750;52.040;7.472;2023-03-07T06:03:02;1.08;;;1.00;;
58972;SDS011;44750;52.040;7.472;2023-03-07T06:08:03;2.83;;;1.88;;
58972;SDS011;44750;52.040;7.472;2023-03-07T06:13:04;2.42;;;1.50;;
58972;SDS011;44750;52.040;7.472;2023-03-07T06:18:04;2.20;;;1.10;;
58972;SDS011;44750;52.040;7.472;2023-03-07T06:23:04;1.65;;;1.55;;
58972;SDS011;44750;52.040;7.472;2023-03-07T06:28:04;1.35;;;1.23;;
58972;SDS011;44750;52.040;7.472;2023-03-07T06:33:05;2.85;;;0.98;;
58972;SDS011;44750;52.040;7.472;2023-03-07T06:38:05;0.90;;;0.90;;
58972;SDS011;44750;52.040;7.472;2023-03-07T06:43:06;1.13;;;1.02;;
58972;SDS011;44750;52.040;7.472;2023-03-07T06:48:06;0.63;;;0.63;;
58972;SDS011;44750;52.040;7.472;2023-03-07T06:53:07;1.48;;;1.13;;
58972;SDS011;44750;52.040;7.472;2023-03-07T06:58:07;1.08;;;0.98;;
58972;SDS011;44750;52.040;7.472;2023-03-07T07:03:09;0.98;;;0.93;;
58972;SDS011;44750;52.040;7.472;2023-03-07T07:13:12;0.70;;;0.70;;
58972;SDS011;44750;52.040;7.472;2023-03-07T07:18:12;2.08;;;0.90;;
58972;SDS011;44750;52.040;7.472;2023-03-07T07:23:12;1.02;;;0.95;;
58972;SDS011;44750;52.040;7.472;2023-03-07T07:28:13;0.55;;;0.55;;
58972;SDS011;44750;52.040;7.472;2023-03-07T07:33:13;0.90;;;0.90;;
58972;SDS011;44750;52.040;7.472;2023-03-07T07:38:13;0.60;;;0.60;;
58972;SDS011;44750;52.040;7.472;2023-03-07T07:43:14;0.70;;;0.67;;
58972;SDS011;44750;52.040;7.472;2023-03-07T07:48:15;0.77;;;0.73;;
58972;SDS011;44750;52.040;7.472;2023-03-07T07:53:16;0.80;;;0.80;;
58972;SDS011;44750;52.040;7.472;2023-03-07T07:58:16;3.03;;;1.15;;
58972;SDS011;44750;52.040;7.472;2023-03-07T08:03:16;0.52;;;0.52;;
58972;SDS011;44750;52.040;7.472;2023-03-07T08:08:17;0.65;;;0.65;;
58972;SDS011;44750;52.040;7.472;2023-03-07T08:13:18;0.55;;;0.55;;
58972;SDS011;44750;52.040;7.472;2023-03-07T08:18:18;0.73;;;0.65;;
58972;SDS011;44750;52.040;7.472;2023-03-07T08:23:18;0.63;;;0.63;;
58972;SDS011;44750;52.040;7.472;2023-03-07T08:28:18;1.55;;;1.23;;
58972;SDS011;44750;52.040;7.472;2023-03-07T08:33:19;0.60;;;0.60;;
58972;SDS011;44750;52.040;7.472;2023-03-07T08:38:19;1.55;;;1.08;;
58972;SDS011;44750;52.040;7.472;2023-03-07T08:43:19;0.85;;;0.85;;
58972;SDS011;44750;52.040;7.472;2023-03-07T08:48:19;1.38;;;1.13;;
58972;SDS011;44750;52.040;7.472;2023-03-07T08:53:20;0.50;;;0.50;;
58972;SDS011;44750;52.040;7.472;2023-03-07T08:58:20;2.05;;;0.93;;
58972;SDS011;44750;52.040;7.472;2023-03-07T09:03:20;3.70;;;1.08;;
58972;SDS011;44750;52.040;7.472;2023-03-07T09:08:21;0.77;;;0.77;;
58972;SDS011;44750;52.040;7.472;2023-03-07T09:13:21;1.03;;;0.80;;
58972;SDS011;44750;52.040;7.472;2023-03-07T09:18:21;0.85;;;0.70;;
58972;SDS011;44750;52.040;7.472;2023-03-07T09:23:21;0.57;;;0.57;;
58972;SDS011;44750;52.040;7.472;2023-03-07T09:28:22;2.97;;;1.42;;
58972;SDS011;44750;52.040;7.472;2023-03-07T09:33:22;1.10;;;1.00;;
58972;SDS011;44750;52.040;7.472;2023-03-07T09:38:22;0.47;;;0.47;;
58972;SDS011;44750;52.040;7.472;2023-03-07T09:43:25;0.95;;;0.93;;
58972;SDS011;44750;52.040;7.472;2023-03-07T09:53:57;0.65;;;0.65;;
58972;SDS011;44750;52.040;7.472;2023-03-07T09:59:00;0.98;;;0.80;;
58972;SDS011;44750;52.040;7.472;2023-03-07T10:04:11;0.47;;;0.47;;
58972;SDS011;44750;52.040;7.472;2023-03-07T10:09:17;0.70;;;0.70;;
58972;SDS011;44750;52.040;7.472;2023-03-07T10:14:41;0.93;;;0.87;;
58972;SDS011;44750;52.040;7.472;2023-03-07T10:19:55;1.15;;;0.77;;
58972;SDS011;44750;52.040;7.472;2023-03-07T10:25:32;0.50;;;0.50;;
58972;SDS011;44750;52.040;7.472;2023-03-07T10:30:39;1.65;;;0.70;;
58972;SDS011;44750;52.040;7.472;2023-03-07T10:35:40;0.32;;;0.32;;
58972;SDS011;44750;52.040;7.472;2023-03-07T10:40:45;1.88;;;1.02;;
58972;SDS011;44750;52.040;7.472;2023-03-07T10:45:51;1.02;;;0.82;;
58972;SDS011;44750;52.040;7.472;2023-03-07T10:51:00;0.82;;;0.80;;
58972;SDS011;44750;52.040;7.472;2023-03-07T10:56:16;0.38;;;0.38;;
58972;SDS011;44750;52.040;7.472;2023-03-07T11:01:20;0.80;;;0.75;;
58972;SDS011;44750;52.040;7.472;2023-03-07T11:06:31;1.20;;;0.68;;
58972;SDS011;44750;52.040;7.472;2023-03-07T11:11:31;0.70;;;0.70;;
58972;SDS011;44750;52.040;7.472;2023-03-07T11:16:31;1.42;;;1.15;;
58972;SDS011;44750;52.040;7.472;2023-03-07T11:21:33;1.08;;;0.77;;
58972;SDS011;44750;52.040;7.472;2023-03-07T11:26:38;1.08;;;0.77;;
58972;SDS011;44750;52.040;7.472;2023-03-07T11:31:42;1.27;;;1.02;;
58972;SDS011;44750;52.040;7.472;2023-03-07T11:36:53;0.50;;;0.50;;
58972;SDS011;44750;52.040;7.472;2023-03-07T11:41:56;1.10;;;0.70;;
58972;SDS011;44750;52.040;7.472;2023-03-07T12:02:54;0.70;;;0.70;;
58972;SDS011;44750;52.040;7.472;2023-03-07T12:18:58;2.92;;;1.25;;
58972;SDS011;44750;52.040;7.472;2023-03-07T12:24:16;0.77;;;0.77;;
58972;SDS011;44750;52.040;7.472;2023-03-07T12:29:28;1.10;;;1.00;;
58972;SDS011;44750;52.040;7.472;2023-03-07T12:34:54;0.55;;;0.55;;
58972;SDS011;44750;52.040;7.472;2023-03-07T12:40:07;1.92;;;1.10;;
58972;SDS011;44750;52.040;7.472;2023-03-07T12:45:17;0.60;;;0.60;;
58972;SDS011;44750;52.040;7.472;2023-03-07T12:55:45;1.10;;;1.00;;
58972;SDS011;44750;52.040;7.472;2023-03-07T13:00:53;0.50;;;0.50;;
58972;SDS011;44750;52.040;7.472;2023-03-07T13:05:57;0.98;;;0.90;;
58972;SDS011;44750;52.040;7.472;2023-03-07T13:10:57;6.25;;;1.05;;
58972;SDS011;44750;52.040;7.472;2023-03-07T13:16:02;1.43;;;1.20;;
58972;SDS011;44750;52.040;7.472;2023-03-07T13:21:11;1.77;;;1.10;;
58972;SDS011;44750;52.040;7.472;2023-03-07T13:26:28;1.77;;;1.15;;
58972;SDS011;44750;52.040;7.472;2023-03-07T13:31:36;0.80;;;0.80;;
58972;SDS011;44750;52.040;7.472;2023-03-07T13:36:37;0.70;;;0.70;;
58972;SDS011;44750;52.040;7.472;2023-03-07T13:41:45;2.60;;;0.77;;
58972;SDS011;44750;52.040;7.472;2023-03-07T13:46:47;2.08;;;1.27;;
58972;SDS011;44750;52.040;7.472;2023-03-07T13:57:27;1.23;;;1.13;;
58972;SDS011;44750;52.040;7.472;2023-03-07T14:02:34;2.25;;;1.08;;
58972;SDS011;44750;52.040;7.472;2023-03-07T14:07:35;0.45;;;0.45;;
58972;SDS011;44750;52.040;7.472;2023-03-07T14:18:24;0.55;;;0.55;;
58972;SDS011;44750;52.040;7.472;2023-03-07T14:29:16;0.57;;;0.57;;
58972;SDS011;44750;52.040;7.472;2023-03-07T14:39:20;0.82;;;0.68;;
58972;SDS011;44750;52.040;7.472;2023-03-07T14:44:25;1.23;;;0.98;;
58972;SDS011;44750;52.040;7.472;2023-03-07T14:55:17;0.65;;;0.65;;
58972;SDS011;44750;52.040;7.472;2023-03-07T15:05:22;1.20;;;1.10;;
58972;SDS011;44750;52.040;7.472;2023-03-07T15:10:38;1.13;;;1.02;;
58972;SDS011;44750;52.040;7.472;2023-03-07T15:15:41;1.00;;;1.00;;
58972;SDS011;44750;52.040;7.472;2023-03-07T15:20:47;0.50;;;0.50;;
58972;SDS011;44750;52.040;7.472;2023-03-07T15:25:53;0.40;;;0.40;;
58972;SDS011;44750;52.040;7.472;2023-03-07T15:30:58;3.33;;;0.60;;
58972;SDS011;44750;52.040;7.472;2023-03-07T15:46:29;0.70;;;0.70;;
58972;SDS011;44750;52.040;7.472;2023-03-07T15:51:36;1.63;;;1.02;;
58972;SDS011;44750;52.040;7.472;2023-03-07T15:56:37;0.60;;;0.60;;
58972;SDS011;44750;52.040;7.472;2023-03-07T16:01:37;0.30;;;0.30;;
58972;SDS011;44750;52.040;7.472;2023-03-07T16:06:41;0.50;;;0.50;;
58972;SDS011;44750;52.040;7.472;2023-03-07T16:11:44;0.70;;;0.70;;
58972;SDS011;44750;52.040;7.472;2023-03-07T16:16:45;0.73;;;0.63;;
58972;SDS011;44750;52.040;7.472;2023-03-07T16:21:45;0.60;;;0.60;;
58972;SDS011;44750;52.040;7.472;2023-03-07T16:26:46;0.63;;;0.50;;
58972;SDS011;44750;52.040;7.472;2023-03-07T16:31:47;1.40;;;0.75;;
58972;SDS011;44750;52.040;7.472;2023-03-07T16:36:47;0.82;;;0.80;;
58972;SDS011;44750;52.040;7.472;2023-03-07T16:41:48;0.98;;;0.98;;
58972;SDS011;44750;52.040;7.472;2023-03-07T16:46:51;1.17;;;1.08;;
58972;SDS011;44750;52.040;7.472;2023-03-07T16:51:59;1.90;;;1.17;;
58972;SDS011;44750;52.040;7.472;2023-03-07T16:57:00;0.60;;;0.60;;
58972;SDS011;44750;52.040;7.472;2023-03-07T17:02:04;0.50;;;0.50;;
58972;SDS011;44750;52.040;7.472;2023-03-07T17:07:18;0.93;;;0.90;;
58972;SDS011;44750;52.040;7.472;2023-03-07T17:12:21;2.75;;;1.38;;
58972;SDS011;44750;52.040;7.472;2023-03-07T17:17:25;0.75;;;0.75;;
58972;SDS011;44750;52.040;7.472;2023-03-07T17:22:29;1.30;;;1.20;;
58972;SDS011;44750;52.040;7.472;2023-03-07T17:27:30;1.00;;;1.00;;
58972;SDS011;44750;52.040;7.472;2023-03-07T17:32:32;1.40;;;0.98;;
58972;SDS011;44750;52.040;7.472;2023-03-07T17:37:32;1.40;;;0.80;;
58972;SDS011;44750;52.040;7.472;2023-03-07T17:42:32;3.00;;;2.25;;
58972;SDS011;44750;52.040;7.472;2023-03-07T17:47:33;1.80;;;1.17;;
58972;SDS011;44750;52.040;7.472;2023-03-07T17:52:33;1.30;;;1.17;;
58972;SDS011;44750;52.040;7.472;2023-03-07T17:57:34;0.73;;;0.63;;
58972;SDS011;44750;52.040;7.472;2023-03-07T18:02:34;3.03;;;2.03;;
58972;SDS011;44750;52.040;7.472;2023-03-07T18:07:34;1.10;;;1.00;;
58972;SDS011;44750;52.040;7.472;2023-03-07T18:12:35;2.37;;;1.40;;
58972;SDS011;44750;52.040;7.472;2023-03-07T18:17:35;2.58;;;1.33;;
58972;SDS011;44750;52.040;7.472;2023-03-07T18:22:38;0.93;;;0.93;;
58972;SDS011;44750;52.040;7.472;2023-03-07T18:27:39;0.82;;;0.82;;
58972;SDS011;44750;52.040;7.472;2023-03-07T18:32:40;2.00;;;1.63;;
58972;SDS011;44750;52.040;7.472;2023-03-07T18:37:40;1.93;;;1.40;;
58972;SDS011;44750;52.040;7.472;2023-03-07T18:42:40;2.03;;;1.13;;
58972;SDS011;44750;52.040;7.472;2023-03-07T18:47:40;2.60;;;1.35;;
58972;SDS011;44750;52.040;7.472;2023-03-07T18:52:41;0.95;;;0.90;;
58972;SDS011;44750;52.040;7.472;2023-03-07T18:57:41;0.68;;;0.68;;
58972;SDS011;44750;52.040;7.472;2023-03-07T19:02:41;0.52;;;0.52;;
58972;SDS011;44750;52.040;7.472;2023-03-07T19:07:41;0.98;;;0.82;;
58972;SDS011;44750;52.040;7.472;2023-03-07T19:12:42;2.38;;;1.13;;
58972;SDS011;44750;52.040;7.472;2023-03-07T19:17:44;9.38;;;0.98;;
58972;SDS011;44750;52.040;7.472;2023-03-07T19:22:44;1.33;;;0.95;;
58972;SDS011;44750;52.040;7.472;2023-03-07T19:27:45;0.98;;;0.98;;
58972;SDS011;44750;52.040;7.472;2023-03-07T19:32:45;1.92;;;1.35;;
58972;SDS011;44750;52.040;7.472;2023-03-07T19:37:45;1.52;;;1.42;;
58972;SDS011;44750;52.040;7.472;2023-03-07T19:42:46;2.00;;;1.42;;
58972;SDS011;44750;52.040;7.472;2023-03-07T19:47:46;1.13;;;1.10;;
58972;SDS011;44750;52.040;7.472;2023-03-07T19:52:46;2.45;;;0.88;;
58972;SDS011;44750;52.040;7.472;2023-03-07T19:57:46;1.70;;;1.50;;
58972;SDS011;44750;52.040;7.472;2023-03-07T20:02:47;1.60;;;1.35;;
58972;SDS011;44750;52.040;7.472;2023-03-07T20:07:47;3.10;;;2.28;;
58972;SDS011;44750;52.040;7.472;2023-03-07T20:12:47;13.43;;;2.70;;
58972;SDS011;44750;52.040;7.472;2023-03-07T20:17:47;9.43;;;4.88;;
58972;SDS011;44750;52.040;7.472;2023-03-07T20:22:52;2.60;;;2.40;;
58972;SDS011;44750;52.040;7.472;2023-03-07T20:27:53;3.75;;;2.55;;
58972;SDS011;44750;52.040;7.472;2023-03-07T20:32:54;2.73;;;2.47;;
58972;SDS011;44750;52.040;7.472;2023-03-07T20:37:54;2.53;;;1.48;;
58972;SDS011;44750;52.040;7.472;2023-03-07T20:42:55;1.58;;;1.48;;
58972;SDS011;44750;52.040;7.472;2023-03-07T20:47:55;2.17;;;1.35;;
58972;SDS011;44750;52.040;7.472;2023-03-07T20:52:55;0.73;;;0.68;;
58972;SDS011;44750;52.040;7.472;2023-03-07T20:57:56;0.98;;;0.93;;
58972;SDS011;44750;52.040;7.472;2023-03-07T21:02:56;1.27;;;1.00;;
58972;SDS011;44750;52.040;7.472;2023-03-07T21:07:56;1.77;;;1.58;;
58972;SDS011;44750;52.040;7.472;2023-03-07T21:12:56;0.80;;;0.80;;
58972;SDS011;44750;52.040;7.472;2023-03-07T21:17:57;1.00;;;1.00;;
58972;SDS011;44750;52.040;7.472;2023-03-07T21:22:57;0.77;;;0.77;;
58972;SDS011;44750;52.040;7.472;2023-03-07T21:27:57;3.90;;;2.72;;
58972;SDS011;44750;52.040;7.472;2023-03-07T21:32:57;4.55;;;3.60;;
58972;SDS011;44750;52.040;7.472;2023-03-07T21:37:58;3.13;;;2.15;;
58972;SDS011;44750;52.040;7.472;2023-03-07T21:42:58;4.03;;;2.95;;
58972;SDS011;44750;52.040;7.472;2023-03-07T21:47:58;1.98;;;1.73;;
58972;SDS011;44750;52.040;7.472;2023-03-07T21:52:58;1.35;;;1.25;;
58972;SDS011;44750;52.040;7.472;2023-03-07T21:57:59;0.80;;;0.80;;
58972;SDS011;44750;52.040;7.472;2023-03-07T22:02:59;1.38;;;1.27;;
58972;SDS011;44750;52.040;7.472;2023-03-07T22:07:59;3.15;;;1.67;;
58972;SDS011;44750;52.040;7.472;2023-03-07T22:12:59;1.58;;;1.48;;
58972;SDS011;44750;52.040;7.472;2023-03-07T22:17:59;1.30;;;1.20;;
58972;SDS011;44750;52.040;7.472;2023-03-07T22:23:00;1.50;;;1.40;;
58972;SDS011;44750;52.040;7.472;2023-03-07T22:28:00;2.80;;;1.70;;
58972;SDS011;44750;52.040;7.472;2023-03-07T22:33:00;1.40;;;1.30;;
58972;SDS011;44750;52.040;7.472;2023-03-07T22:38:00;2.35;;;2.15;;
58972;SDS011;44750;52.040;7.472;2023-03-07T22:43:01;1.85;;;1.70;;
58972;SDS011;44750;52.040;7.472;2023-03-07T22:48:01;1.58;;;1.48;;
58972;SDS011;44750;52.040;7.472;2023-03-07T22:53:01;4.47;;;1.90;;
58972;SDS011;44750;52.040;7.472;2023-03-07T22:58:01;1.13;;;1.08;;
58972;SDS011;44750;52.040;7.472;2023-03-07T23:03:02;1.83;;;1.73;;
58972;SDS011;44750;52.040;7.472;2023-03-07T23:08:02;2.15;;;1.95;;
58972;SDS011;44750;52.040;7.472;2023-03-07T23:13:02;1.85;;;1.67;;
58972;SDS011;44750;52.040;7.472;2023-03-07T23:18:03;1.80;;;1.70;;
58972;SDS011;44750;52.040;7.472;2023-03-07T23:23:03;3.33;;;2.13;;
58972;SDS011;44750;52.040;7.472;2023-03-07T23:28:03;2.42;;;2.05;;
58972;SDS011;44750;52.040;7.472;2023-03-07T23:33:04;4.28;;;2.90;;
58972;SDS011;44750;52.040;7.472;2023-03-07T23:38:05;1.92;;;1.70;;
58972;SDS011;44750;52.040;7.472;2023-03-07T23:43:12;2.10;;;1.90;;
58972;SDS011;44750;52.040;7.472;2023-03-07T23:48:13;3.13;;;2.20;;
58972;SDS011;44750;52.040;7.472;2023-03-07T23:53:13;2.53;;;2.33;;
58972;SDS011;44750;52.040;7.472;2023-03-07T23:58:13;2.53;;;2.15;;
